sensor_id;sensor_type;location;lat;lon;timestamp;temperature;humidity
52965;DHT22;42923;53.220;6.528;2023-05-06T00:00:38;12.20;99.90
52965;DHT22;42923;53.220;6.528;2023-05-06T00:03:03;12.10;99.90
52965;DHT22;42923;53.220;6.528;2023-05-06T00:05:29;12.10;99.90
52965;DHT22;42923;53.220;6.528;2023-05-06T00:07:55;12.00;99.90
52965;DHT22;42923;53.220;6.528;2023-05-06T00:10:20;12.00;99.90
52965;DHT22;42923;53.220;6.528;2023-05-06T00:12:46;12.00;99.90
52965;DHT22;42923;53.220;6.528;2023-05-06T00:15:12;11.90;99.90
52965;DHT22;42923;53.220;6.528;2023-05-06T00:17:38;11.80;99.90
52965;DHT22;42923;53.220;6.528;2023-05-06T00:20:04;12.10;99.90
52965;DHT22;42923;53.220;6.528;2023-05-06T00:22:30;11.80;99.90
52965;DHT22;42923;53.220;6.528;2023-05-06T00:24:56;11.80;99.90
52965;DHT22;42923;53.220;6.528;2023-05-06T00:27:21;11.70;99.90
52965;DHT22;42923;53.220;6.528;2023-05-06T00:29:48;11.70;99.90
52965;DHT22;42923;53.220;6.528;2023-05-06T00:32:14;11.70;99.90
52965;DHT22;42923;53.220;6.528;2023-05-06T00:34:39;11.60;99.90
52965;DHT22;42923;53.220;6.528;2023-05-06T00:37:05;11.60;99.90
52965;DHT22;42923;53.220;6.528;2023-05-06T00:39:31;11.50;99.90
52965;DHT22;42923;53.220;6.528;2023-05-06T00:42:01;11.50;99.90
52965;DHT22;42923;53.220;6.528;2023-05-06T00:44:28;11.40;99.90
52965;DHT22;42923;53.220;6.528;2023-05-06T00:46:55;11.50;99.90
52965;DHT22;42923;53.220;6.528;2023-05-06T00:49:21;11.50;99.90
52965;DHT22;42923;53.220;6.528;2023-05-06T00:51:47;11.50;99.90
52965;DHT22;42923;53.220;6.528;2023-05-06T00:54:13;11.40;99.90
52965;DHT22;42923;53.220;6.528;2023-05-06T00:56:40;11.50;99.90
52965;DHT22;42923;53.220;6.528;2023-05-06T00:59:05;11.40;99.90
52965;DHT22;42923;53.220;6.528;2023-05-06T01:01:31;11.50;99.90
52965;DHT22;42923;53.220;6.528;2023-05-06T01:03:58;11.50;99.90
52965;DHT22;42923;53.220;6.528;2023-05-06T01:09:18;11.50;99.90
52965;DHT22;42923;53.220;6.528;2023-05-06T01:12:11;11.50;99.90
52965;DHT22;42923;53.220;6.528;2023-05-06T01:15:07;11.50;99.90
52965;DHT22;42923;53.220;6.528;2023-05-06T01:17:40;11.60;99.90
52965;DHT22;42923;53.220;6.528;2023-05-06T01:20:07;11.60;99.90
52965;DHT22;42923;53.220;6.528;2023-05-06T01:22:36;11.60;99.90
52965;DHT22;42923;53.220;6.528;2023-05-06T01:25:03;11.60;99.90
52965;DHT22;42923;53.220;6.528;2023-05-06T01:27:29;11.70;99.90
52965;DHT22;42923;53.220;6.528;2023-05-06T01:29:55;11.70;99.90
52965;DHT22;42923;53.220;6.528;2023-05-06T01:40:43;11.70;99.90
52965;DHT22;42923;53.220;6.528;2023-05-06T01:43:11;11.70;99.90
52965;DHT22;42923;53.220;6.528;2023-05-06T01:45:41;11.80;99.90
52965;DHT22;42923;53.220;6.528;2023-05-06T01:48:08;11.70;99.90
52965;DHT22;42923;53.220;6.528;2023-05-06T01:50:34;11.70;99.90
52965;DHT22;42923;53.220;6.528;2023-05-06T01:53:02;11.60;99.90
52965;DHT22;42923;53.220;6.528;2023-05-06T01:55:28;11.50;99.90
52965;DHT22;42923;53.220;6.528;2023-05-06T01:57:57;11.50;99.90
52965;DHT22;42923;53.220;6.528;2023-05-06T02:00:24;11.40;99.90
52965;DHT22;42923;53.220;6.528;2023-05-06T02:02:50;11.40;99.90
52965;DHT22;42923;53.220;6.528;2023-05-06T02:05:16;11.30;99.90
52965;DHT22;42923;53.220;6.528;2023-05-06T02:07:46;11.30;99.90
52965;DHT22;42923;53.220;6.528;2023-05-06T02:10:12;11.20;99.90
52965;DHT22;42923;53.220;6.528;2023-05-06T02:12:41;11.10;99.90
52965;DHT22;42923;53.220;6.528;2023-05-06T02:15:07;11.10;99.90
52965;DHT22;42923;53.220;6.528;2023-05-06T02:17:37;11.00;99.90
52965;DHT22;42923;53.220;6.528;2023-05-06T02:20:03;10.90;99.90
52965;DHT22;42923;53.220;6.528;2023-05-06T02:22:30;10.90;99.90
52965;DHT22;42923;53.220;6.528;2023-05-06T02:24:56;10.80;99.90
52965;DHT22;42923;53.220;6.528;2023-05-06T02:27:21;10.70;99.90
52965;DHT22;42923;53.220;6.528;2023-05-06T02:29:47;10.70;99.90
52965;DHT22;42923;53.220;6.528;2023-05-06T02:32:13;10.60;99.90
52965;DHT22;42923;53.220;6.528;2023-05-06T02:34:38;10.60;99.90
52965;DHT22;42923;53.220;6.528;2023-05-06T02:37:04;10.50;99.90
52965;DHT22;42923;53.220;6.528;2023-05-06T02:39:30;10.50;99.90
52965;DHT22;42923;53.220;6.528;2023-05-06T02:41:55;10.40;99.90
52965;DHT22;42923;53.220;6.528;2023-05-06T02:44:21;10.40;99.90
52965;DHT22;42923;53.220;6.528;2023-05-06T02:46:47;10.40;99.90
52965;DHT22;42923;53.220;6.528;2023-05-06T02:49:12;10.30;99.90
52965;DHT22;42923;53.220;6.528;2023-05-06T02:51:38;10.30;99.90
52965;DHT22;42923;53.220;6.528;2023-05-06T02:54:04;10.30;99.90
52965;DHT22;42923;53.220;6.528;2023-05-06T02:56:30;10.20;99.90
52965;DHT22;42923;53.220;6.528;2023-05-06T02:58:56;10.30;99.90
52965;DHT22;42923;53.220;6.528;2023-05-06T03:01:21;10.10;99.90
52965;DHT22;42923;53.220;6.528;2023-05-06T03:03:47;10.10;99.90
52965;DHT22;42923;53.220;6.528;2023-05-06T03:06:13;10.10;99.90
52965;DHT22;42923;53.220;6.528;2023-05-06T03:08:38;10.10;99.90
52965;DHT22;42923;53.220;6.528;2023-05-06T03:11:06;10.00;99.90
52965;DHT22;42923;53.220;6.528;2023-05-06T03:13:31;10.00;99.90
52965;DHT22;42923;53.220;6.528;2023-05-06T03:15:57;10.00;99.90
52965;DHT22;42923;53.220;6.528;2023-05-06T03:18:23;9.80;99.90
52965;DHT22;42923;53.220;6.528;2023-05-06T03:20:49;9.90;99.90
52965;DHT22;42923;53.220;6.528;2023-05-06T03:23:16;9.80;99.90
52965;DHT22;42923;53.220;6.528;2023-05-06T03:25:42;9.80;99.90
52965;DHT22;42923;53.220;6.528;2023-05-06T03:28:08;9.80;99.90
52965;DHT22;42923;53.220;6.528;2023-05-06T03:30:36;9.80;99.90
52965;DHT22;42923;53.220;6.528;2023-05-06T03:33:04;9.90;99.90
52965;DHT22;42923;53.220;6.528;2023-05-06T03:35:31;9.80;99.90
52965;DHT22;42923;53.220;6.528;2023-05-06T03:37:59;9.90;99.90
52965;DHT22;42923;53.220;6.528;2023-05-06T03:40:30;9.90;99.90
52965;DHT22;42923;53.220;6.528;2023-05-06T03:42:57;9.90;99.90
52965;DHT22;42923;53.220;6.528;2023-05-06T03:45:23;10.00;99.90
52965;DHT22;42923;53.220;6.528;2023-05-06T03:47:49;10.00;99.90
52965;DHT22;42923;53.220;6.528;2023-05-06T03:50:17;10.00;99.90
52965;DHT22;42923;53.220;6.528;2023-05-06T03:52:43;10.00;99.90
52965;DHT22;42923;53.220;6.528;2023-05-06T03:55:09;10.10;99.90
52965;DHT22;42923;53.220;6.528;2023-05-06T03:57:35;10.20;99.90
52965;DHT22;42923;53.220;6.528;2023-05-06T04:00:02;10.10;99.90
52965;DHT22;42923;53.220;6.528;2023-05-06T04:02:34;10.10;99.90
52965;DHT22;42923;53.220;6.528;2023-05-06T04:05:00;10.00;99.90
52965;DHT22;42923;53.220;6.528;2023-05-06T04:07:27;10.00;99.90
52965;DHT22;42923;53.220;6.528;2023-05-06T04:09:52;10.00;99.90
52965;DHT22;42923;53.220;6.528;2023-05-06T04:12:18;10.00;99.90
52965;DHT22;42923;53.220;6.528;2023-05-06T04:14:46;10.00;99.90
52965;DHT22;42923;53.220;6.528;2023-05-06T04:17:12;10.00;99.90
52965;DHT22;42923;53.220;6.528;2023-05-06T04:19:38;10.00;99.90
52965;DHT22;42923;53.220;6.528;2023-05-06T04:22:04;10.00;99.90
52965;DHT22;42923;53.220;6.528;2023-05-06T04:24:29;10.00;99.90
52965;DHT22;42923;53.220;6.528;2023-05-06T04:26:56;10.00;99.90
52965;DHT22;42923;53.220;6.528;2023-05-06T04:29:23;10.10;99.90
52965;DHT22;42923;53.220;6.528;2023-05-06T04:31:59;10.10;99.90
52965;DHT22;42923;53.220;6.528;2023-05-06T04:34:26;10.20;99.90
52965;DHT22;42923;53.220;6.528;2023-05-06T04:36:53;10.10;99.90
52965;DHT22;42923;53.220;6.528;2023-05-06T04:39:54;10.20;99.90
52965;DHT22;42923;53.220;6.528;2023-05-06T04:42:20;10.20;99.90
52965;DHT22;42923;53.220;6.528;2023-05-06T04:44:58;10.20;99.90
52965;DHT22;42923;53.220;6.528;2023-05-06T04:47:28;10.30;99.90
52965;DHT22;42923;53.220;6.528;2023-05-06T04:49:54;10.30;99.90
52965;DHT22;42923;53.220;6.528;2023-05-06T04:52:20;10.40;99.90
52965;DHT22;42923;53.220;6.528;2023-05-06T04:54:47;10.50;99.90
52965;DHT22;42923;53.220;6.528;2023-05-06T04:57:13;10.50;99.90
52965;DHT22;42923;53.220;6.528;2023-05-06T04:59:41;10.60;99.90
52965;DHT22;42923;53.220;6.528;2023-05-06T05:02:07;10.70;99.90
52965;DHT22;42923;53.220;6.528;2023-05-06T05:04:33;10.80;99.90
52965;DHT22;42923;53.220;6.528;2023-05-06T05:06:59;10.90;99.90
52965;DHT22;42923;53.220;6.528;2023-05-06T05:09:25;11.00;99.90
52965;DHT22;42923;53.220;6.528;2023-05-06T05:11:51;11.20;99.90
52965;DHT22;42923;53.220;6.528;2023-05-06T05:14:17;11.30;99.90
52965;DHT22;42923;53.220;6.528;2023-05-06T05:16:43;11.40;99.90
52965;DHT22;42923;53.220;6.528;2023-05-06T05:19:09;11.50;99.90
52965;DHT22;42923;53.220;6.528;2023-05-06T05:21:35;11.80;99.90
52965;DHT22;42923;53.220;6.528;2023-05-06T05:24:01;11.70;99.90
52965;DHT22;42923;53.220;6.528;2023-05-06T05:26:28;11.80;99.90
52965;DHT22;42923;53.220;6.528;2023-05-06T05:28:56;11.90;99.90
52965;DHT22;42923;53.220;6.528;2023-05-06T05:31:22;12.00;99.90
52965;DHT22;42923;53.220;6.528;2023-05-06T05:33:48;12.10;99.90
52965;DHT22;42923;53.220;6.528;2023-05-06T05:36:17;12.10;99.90
52965;DHT22;42923;53.220;6.528;2023-05-06T05:38:45;12.10;99.90
52965;DHT22;42923;53.220;6.528;2023-05-06T05:41:13;12.10;99.90
52965;DHT22;42923;53.220;6.528;2023-05-06T05:43:39;12.10;99.90
52965;DHT22;42923;53.220;6.528;2023-05-06T05:46:04;12.20;99.90
52965;DHT22;42923;53.220;6.528;2023-05-06T05:48:31;12.10;99.90
52965;DHT22;42923;53.220;6.528;2023-05-06T05:51:00;12.10;99.90
52965;DHT22;42923;53.220;6.528;2023-05-06T05:53:26;12.00;99.90
52965;DHT22;42923;53.220;6.528;2023-05-06T05:55:52;11.90;99.90
52965;DHT22;42923;53.220;6.528;2023-05-06T05:58:18;11.90;99.90
52965;DHT22;42923;53.220;6.528;2023-05-06T06:00:44;12.00;99.90
52965;DHT22;42923;53.220;6.528;2023-05-06T06:03:13;12.00;99.90
52965;DHT22;42923;53.220;6.528;2023-05-06T06:05:39;12.30;99.90
52965;DHT22;42923;53.220;6.528;2023-05-06T06:08:05;12.20;99.90
52965;DHT22;42923;53.220;6.528;2023-05-06T06:10:32;12.20;99.90
52965;DHT22;42923;53.220;6.528;2023-05-06T06:13:01;12.30;99.90
52965;DHT22;42923;53.220;6.528;2023-05-06T06:15:30;12.30;99.90
52965;DHT22;42923;53.220;6.528;2023-05-06T06:17:56;12.30;99.90
52965;DHT22;42923;53.220;6.528;2023-05-06T06:20:24;12.30;99.90
52965;DHT22;42923;53.220;6.528;2023-05-06T06:22:51;12.30;99.90
52965;DHT22;42923;53.220;6.528;2023-05-06T06:25:17;12.30;99.90
52965;DHT22;42923;53.220;6.528;2023-05-06T06:27:43;12.30;99.90
52965;DHT22;42923;53.220;6.528;2023-05-06T06:30:09;12.30;99.90
52965;DHT22;42923;53.220;6.528;2023-05-06T06:32:35;12.40;99.90
52965;DHT22;42923;53.220;6.528;2023-05-06T06:35:01;12.40;99.90
52965;DHT22;42923;53.220;6.528;2023-05-06T06:37:27;12.40;99.90
52965;DHT22;42923;53.220;6.528;2023-05-06T06:39:53;12.40;99.90
52965;DHT22;42923;53.220;6.528;2023-05-06T06:42:19;12.40;99.90
52965;DHT22;42923;53.220;6.528;2023-05-06T06:44:57;12.50;99.90
52965;DHT22;42923;53.220;6.528;2023-05-06T06:47:23;12.60;99.90
52965;DHT22;42923;53.220;6.528;2023-05-06T06:49:49;12.60;99.90
52965;DHT22;42923;53.220;6.528;2023-05-06T06:52:14;12.60;99.90
52965;DHT22;42923;53.220;6.528;2023-05-06T06:54:40;12.80;99.90
52965;DHT22;42923;53.220;6.528;2023-05-06T06:57:06;12.80;99.90
52965;DHT22;42923;53.220;6.528;2023-05-06T06:59:31;12.90;99.90
52965;DHT22;42923;53.220;6.528;2023-05-06T07:01:57;13.00;99.90
52965;DHT22;42923;53.220;6.528;2023-05-06T07:04:23;13.00;99.90
52965;DHT22;42923;53.220;6.528;2023-05-06T07:06:50;13.10;99.90
52965;DHT22;42923;53.220;6.528;2023-05-06T07:09:16;13.10;99.90
52965;DHT22;42923;53.220;6.528;2023-05-06T07:11:41;13.10;99.90
52965;DHT22;42923;53.220;6.528;2023-05-06T07:14:07;13.10;99.90
52965;DHT22;42923;53.220;6.528;2023-05-06T07:16:33;13.10;99.90
52965;DHT22;42923;53.220;6.528;2023-05-06T07:18:59;13.10;99.90
52965;DHT22;42923;53.220;6.528;2023-05-06T07:21:25;13.20;99.90
52965;DHT22;42923;53.220;6.528;2023-05-06T07:23:52;13.10;99.90
52965;DHT22;42923;53.220;6.528;2023-05-06T07:26:17;13.20;99.90
52965;DHT22;42923;53.220;6.528;2023-05-06T07:28:43;13.20;99.90
52965;DHT22;42923;53.220;6.528;2023-05-06T07:31:09;13.20;99.90
52965;DHT22;42923;53.220;6.528;2023-05-06T07:33:35;13.20;99.90
52965;DHT22;42923;53.220;6.528;2023-05-06T07:36:00;13.20;99.90
52965;DHT22;42923;53.220;6.528;2023-05-06T07:38:26;13.30;99.90
52965;DHT22;42923;53.220;6.528;2023-05-06T07:40:52;13.30;99.90
52965;DHT22;42923;53.220;6.528;2023-05-06T07:43:17;13.40;99.90
52965;DHT22;42923;53.220;6.528;2023-05-06T07:45:43;13.50;99.90
52965;DHT22;42923;53.220;6.528;2023-05-06T07:48:09;13.60;99.90
52965;DHT22;42923;53.220;6.528;2023-05-06T07:50:35;13.70;99.90
52965;DHT22;42923;53.220;6.528;2023-05-06T07:53:00;13.90;99.90
52965;DHT22;42923;53.220;6.528;2023-05-06T07:55:27;14.00;99.90
52965;DHT22;42923;53.220;6.528;2023-05-06T07:57:54;14.20;99.90
52965;DHT22;42923;53.220;6.528;2023-05-06T08:00:19;14.20;99.90
52965;DHT22;42923;53.220;6.528;2023-05-06T08:02:45;14.30;99.90
52965;DHT22;42923;53.220;6.528;2023-05-06T08:05:13;14.50;99.90
52965;DHT22;42923;53.220;6.528;2023-05-06T08:07:41;14.50;99.90
52965;DHT22;42923;53.220;6.528;2023-05-06T08:10:08;14.60;99.90
52965;DHT22;42923;53.220;6.528;2023-05-06T08:12:34;14.70;99.90
52965;DHT22;42923;53.220;6.528;2023-05-06T08:15:01;14.70;99.90
52965;DHT22;42923;53.220;6.528;2023-05-06T08:17:27;14.80;99.90
52965;DHT22;42923;53.220;6.528;2023-05-06T08:19:52;14.80;99.90
52965;DHT22;42923;53.220;6.528;2023-05-06T08:22:18;14.90;99.90
52965;DHT22;42923;53.220;6.528;2023-05-06T08:24:44;15.00;99.90
52965;DHT22;42923;53.220;6.528;2023-05-06T08:27:10;15.00;99.90
52965;DHT22;42923;53.220;6.528;2023-05-06T08:29:35;15.20;99.90
52965;DHT22;42923;53.220;6.528;2023-05-06T08:32:01;15.30;99.90
52965;DHT22;42923;53.220;6.528;2023-05-06T08:34:27;15.40;99.90
52965;DHT22;42923;53.220;6.528;2023-05-06T08:36:52;15.40;99.90
52965;DHT22;42923;53.220;6.528;2023-05-06T08:39:18;15.60;99.90
52965;DHT22;42923;53.220;6.528;2023-05-06T08:41:48;15.60;99.90
52965;DHT22;42923;53.220;6.528;2023-05-06T08:44:17;15.70;99.90
52965;DHT22;42923;53.220;6.528;2023-05-06T08:46:44;15.80;99.90
52965;DHT22;42923;53.220;6.528;2023-05-06T08:49:10;16.00;99.90
52965;DHT22;42923;53.220;6.528;2023-05-06T08:51:37;16.00;99.90
52965;DHT22;42923;53.220;6.528;2023-05-06T08:54:03;16.00;99.90
52965;DHT22;42923;53.220;6.528;2023-05-06T08:56:32;16.20;99.90
52965;DHT22;42923;53.220;6.528;2023-05-06T08:58:58;16.30;99.90
52965;DHT22;42923;53.220;6.528;2023-05-06T09:01:27;16.40;99.90
52965;DHT22;42923;53.220;6.528;2023-05-06T09:03:55;16.40;99.90
52965;DHT22;42923;53.220;6.528;2023-05-06T09:06:22;16.60;99.90
52965;DHT22;42923;53.220;6.528;2023-05-06T09:08:48;16.80;99.90
52965;DHT22;42923;53.220;6.528;2023-05-06T09:11:21;16.90;99.90
52965;DHT22;42923;53.220;6.528;2023-05-06T09:13:47;17.00;99.90
52965;DHT22;42923;53.220;6.528;2023-05-06T09:16:29;17.10;99.90
52965;DHT22;42923;53.220;6.528;2023-05-06T09:18:55;17.20;99.90
52965;DHT22;42923;53.220;6.528;2023-05-06T09:21:28;17.20;99.90
52965;DHT22;42923;53.220;6.528;2023-05-06T09:23:57;17.30;99.90
52965;DHT22;42923;53.220;6.528;2023-05-06T09:26:23;17.40;99.90
52965;DHT22;42923;53.220;6.528;2023-05-06T09:28:49;17.60;99.90
52965;DHT22;42923;53.220;6.528;2023-05-06T09:31:15;17.70;99.90
52965;DHT22;42923;53.220;6.528;2023-05-06T09:33:41;17.90;99.90
52965;DHT22;42923;53.220;6.528;2023-05-06T09:36:07;18.10;99.90
52965;DHT22;42923;53.220;6.528;2023-05-06T09:38:39;18.40;99.90
52965;DHT22;42923;53.220;6.528;2023-05-06T09:41:06;18.60;99.90
52965;DHT22;42923;53.220;6.528;2023-05-06T09:43:32;18.70;99.90
52965;DHT22;42923;53.220;6.528;2023-05-06T09:45:58;18.80;99.90
52965;DHT22;42923;53.220;6.528;2023-05-06T09:48:30;18.90;99.90
52965;DHT22;42923;53.220;6.528;2023-05-06T09:50:56;19.00;99.90
52965;DHT22;42923;53.220;6.528;2023-05-06T09:53:23;19.10;99.90
52965;DHT22;42923;53.220;6.528;2023-05-06T09:55:50;19.20;99.90
52965;DHT22;42923;53.220;6.528;2023-05-06T09:58:16;19.20;99.90
52965;DHT22;42923;53.220;6.528;2023-05-06T10:00:45;19.20;99.90
52965;DHT22;42923;53.220;6.528;2023-05-06T10:03:12;19.40;99.90
52965;DHT22;42923;53.220;6.528;2023-05-06T10:05:38;19.60;99.90
52965;DHT22;42923;53.220;6.528;2023-05-06T10:08:05;19.60;99.90
52965;DHT22;42923;53.220;6.528;2023-05-06T10:10:33;19.50;99.90
52965;DHT22;42923;53.220;6.528;2023-05-06T10:13:03;19.50;99.90
52965;DHT22;42923;53.220;6.528;2023-05-06T10:15:29;19.60;99.90
52965;DHT22;42923;53.220;6.528;2023-05-06T10:17:57;19.80;99.90
52965;DHT22;42923;53.220;6.528;2023-05-06T10:20:25;20.00;99.90
52965;DHT22;42923;53.220;6.528;2023-05-06T10:23:00;20.00;99.90
52965;DHT22;42923;53.220;6.528;2023-05-06T10:25:40;19.90;99.90
52965;DHT22;42923;53.220;6.528;2023-05-06T10:28:10;19.70;99.90
52965;DHT22;42923;53.220;6.528;2023-05-06T10:30:38;19.80;99.90
52965;DHT22;42923;53.220;6.528;2023-05-06T10:33:06;20.00;99.90
52965;DHT22;42923;53.220;6.528;2023-05-06T10:35:47;20.30;99.90
52965;DHT22;42923;53.220;6.528;2023-05-06T10:38:28;20.60;99.90
52965;DHT22;42923;53.220;6.528;2023-05-06T10:40:56;20.80;99.90
52965;DHT22;42923;53.220;6.528;2023-05-06T10:46:13;20.80;99.90
52965;DHT22;42923;53.220;6.528;2023-05-06T10:51:37;20.80;99.90
52965;DHT22;42923;53.220;6.528;2023-05-06T10:54:07;20.80;99.90
52965;DHT22;42923;53.220;6.528;2023-05-06T10:56:34;21.10;99.90
52965;DHT22;42923;53.220;6.528;2023-05-06T10:59:02;21.40;99.90
52965;DHT22;42923;53.220;6.528;2023-05-06T11:01:33;21.70;99.90
52965;DHT22;42923;53.220;6.528;2023-05-06T11:04:14;22.20;99.90
52965;DHT22;42923;53.220;6.528;2023-05-06T11:06:41;22.60;99.90
52965;DHT22;42923;53.220;6.528;2023-05-06T11:11:51;22.50;99.90
52965;DHT22;42923;53.220;6.528;2023-05-06T11:14:28;22.20;99.90
52965;DHT22;42923;53.220;6.528;2023-05-06T11:16:55;21.80;99.90
52965;DHT22;42923;53.220;6.528;2023-05-06T11:19:24;21.50;99.90
52965;DHT22;42923;53.220;6.528;2023-05-06T11:21:54;20.90;99.90
52965;DHT22;42923;53.220;6.528;2023-05-06T11:24:39;20.60;99.90
52965;DHT22;42923;53.220;6.528;2023-05-06T11:27:06;20.50;99.90
52965;DHT22;42923;53.220;6.528;2023-05-06T11:29:32;20.40;99.90
52965;DHT22;42923;53.220;6.528;2023-05-06T11:31:58;20.30;99.90
52965;DHT22;42923;53.220;6.528;2023-05-06T11:34:26;20.30;99.90
52965;DHT22;42923;53.220;6.528;2023-05-06T11:37:00;20.30;99.90
52965;DHT22;42923;53.220;6.528;2023-05-06T11:39:28;20.30;99.90
52965;DHT22;42923;53.220;6.528;2023-05-06T11:41:58;20.20;99.90
52965;DHT22;42923;53.220;6.528;2023-05-06T11:44:26;20.10;99.90
52965;DHT22;42923;53.220;6.528;2023-05-06T11:46:55;19.80;99.90
52965;DHT22;42923;53.220;6.528;2023-05-06T11:49:23;19.50;99.90
52965;DHT22;42923;53.220;6.528;2023-05-06T11:51:49;19.30;99.90
52965;DHT22;42923;53.220;6.528;2023-05-06T11:54:15;19.10;99.90
52965;DHT22;42923;53.220;6.528;2023-05-06T11:56:50;19.00;99.90
52965;DHT22;42923;53.220;6.528;2023-05-06T11:59:23;18.80;99.90
52965;DHT22;42923;53.220;6.528;2023-05-06T12:01:50;18.70;99.90
52965;DHT22;42923;53.220;6.528;2023-05-06T12:04:16;18.60;99.90
52965;DHT22;42923;53.220;6.528;2023-05-06T12:06:41;18.40;99.90
52965;DHT22;42923;53.220;6.528;2023-05-06T12:09:10;18.20;99.90
52965;DHT22;42923;53.220;6.528;2023-05-06T12:11:38;18.10;99.90
52965;DHT22;42923;53.220;6.528;2023-05-06T12:14:06;17.70;99.90
52965;DHT22;42923;53.220;6.528;2023-05-06T12:16:33;17.30;99.90
52965;DHT22;42923;53.220;6.528;2023-05-06T12:19:00;16.90;99.90
52965;DHT22;42923;53.220;6.528;2023-05-06T12:21:26;16.50;99.90
52965;DHT22;42923;53.220;6.528;2023-05-06T12:23:57;16.20;99.90
52965;DHT22;42923;53.220;6.528;2023-05-06T12:26:24;15.90;99.90
52965;DHT22;42923;53.220;6.528;2023-05-06T12:29:04;15.80;99.90
52965;DHT22;42923;53.220;6.528;2023-05-06T12:31:31;15.70;99.90
52965;DHT22;42923;53.220;6.528;2023-05-06T12:33:57;15.50;99.90
52965;DHT22;42923;53.220;6.528;2023-05-06T12:36:22;15.30;99.90
52965;DHT22;42923;53.220;6.528;2023-05-06T12:38:56;15.10;99.90
52965;DHT22;42923;53.220;6.528;2023-05-06T12:41:24;15.10;99.90
52965;DHT22;42923;53.220;6.528;2023-05-06T12:43:50;15.10;99.90
52965;DHT22;42923;53.220;6.528;2023-05-06T12:46:19;15.10;99.90
52965;DHT22;42923;53.220;6.528;2023-05-06T12:49:01;15.20;99.90
52965;DHT22;42923;53.220;6.528;2023-05-06T12:51:28;15.10;99.90
52965;DHT22;42923;53.220;6.528;2023-05-06T12:53:55;15.10;99.90
52965;DHT22;42923;53.220;6.528;2023-05-06T12:56:21;15.20;99.90
52965;DHT22;42923;53.220;6.528;2023-05-06T12:59:00;15.20;99.90
52965;DHT22;42923;53.220;6.528;2023-05-06T13:01:26;15.20;99.90
52965;DHT22;42923;53.220;6.528;2023-05-06T13:03:54;15.30;99.90
52965;DHT22;42923;53.220;6.528;2023-05-06T13:06:20;15.40;99.90
52965;DHT22;42923;53.220;6.528;2023-05-06T13:08:46;15.50;99.90
52965;DHT22;42923;53.220;6.528;2023-05-06T13:11:11;15.40;99.90
52965;DHT22;42923;53.220;6.528;2023-05-06T13:13:37;15.30;99.90
52965;DHT22;42923;53.220;6.528;2023-05-06T13:16:03;15.10;99.90
52965;DHT22;42923;53.220;6.528;2023-05-06T13:18:29;15.20;99.90
52965;DHT22;42923;53.220;6.528;2023-05-06T13:20:55;15.10;99.90
52965;DHT22;42923;53.220;6.528;2023-05-06T13:23:21;15.10;99.90
52965;DHT22;42923;53.220;6.528;2023-05-06T13:25:46;15.00;99.90
52965;DHT22;42923;53.220;6.528;2023-05-06T13:28:12;15.00;99.90
52965;DHT22;42923;53.220;6.528;2023-05-06T13:30:38;14.90;99.90
52965;DHT22;42923;53.220;6.528;2023-05-06T13:33:03;15.00;99.90
52965;DHT22;42923;53.220;6.528;2023-05-06T13:35:29;15.00;99.90
52965;DHT22;42923;53.220;6.528;2023-05-06T13:37:55;14.90;99.90
52965;DHT22;42923;53.220;6.528;2023-05-06T13:40:20;15.00;99.90
52965;DHT22;42923;53.220;6.528;2023-05-06T13:42:46;14.90;99.90
52965;DHT22;42923;53.220;6.528;2023-05-06T13:45:13;14.90;99.90
52965;DHT22;42923;53.220;6.528;2023-05-06T13:47:38;14.90;99.90
52965;DHT22;42923;53.220;6.528;2023-05-06T13:50:04;15.00;99.90
52965;DHT22;42923;53.220;6.528;2023-05-06T13:52:30;15.10;99.90
52965;DHT22;42923;53.220;6.528;2023-05-06T13:54:56;15.20;99.90
52965;DHT22;42923;53.220;6.528;2023-05-06T13:57:22;15.20;99.90
52965;DHT22;42923;53.220;6.528;2023-05-06T13:59:50;15.40;99.90
52965;DHT22;42923;53.220;6.528;2023-05-06T14:02:16;15.60;99.90
52965;DHT22;42923;53.220;6.528;2023-05-06T14:04:43;15.80;99.90
52965;DHT22;42923;53.220;6.528;2023-05-06T14:07:09;16.10;99.90
52965;DHT22;42923;53.220;6.528;2023-05-06T14:09:34;16.40;99.90
52965;DHT22;42923;53.220;6.528;2023-05-06T14:12:00;16.60;99.90
52965;DHT22;42923;53.220;6.528;2023-05-06T14:14:27;16.90;99.90
52965;DHT22;42923;53.220;6.528;2023-05-06T14:16:53;17.20;99.90
52965;DHT22;42923;53.220;6.528;2023-05-06T14:19:20;17.40;99.90
52965;DHT22;42923;53.220;6.528;2023-05-06T14:21:45;17.40;99.90
52965;DHT22;42923;53.220;6.528;2023-05-06T14:24:11;17.40;99.90
52965;DHT22;42923;53.220;6.528;2023-05-06T14:26:37;17.40;99.90
52965;DHT22;42923;53.220;6.528;2023-05-06T14:29:03;17.50;99.90
52965;DHT22;42923;53.220;6.528;2023-05-06T14:31:28;17.50;99.90
52965;DHT22;42923;53.220;6.528;2023-05-06T14:33:54;17.60;99.90
52965;DHT22;42923;53.220;6.528;2023-05-06T14:36:20;17.60;99.90
52965;DHT22;42923;53.220;6.528;2023-05-06T14:38:46;17.50;99.90
52965;DHT22;42923;53.220;6.528;2023-05-06T14:41:12;17.50;99.90
52965;DHT22;42923;53.220;6.528;2023-05-06T14:43:37;17.40;99.90
52965;DHT22;42923;53.220;6.528;2023-05-06T14:46:03;17.40;99.90
52965;DHT22;42923;53.220;6.528;2023-05-06T14:48:29;17.70;99.90
52965;DHT22;42923;53.220;6.528;2023-05-06T14:50:54;18.50;99.90
52965;DHT22;42923;53.220;6.528;2023-05-06T14:53:20;19.40;99.90
52965;DHT22;42923;53.220;6.528;2023-05-06T14:55:46;20.10;99.90
52965;DHT22;42923;53.220;6.528;2023-05-06T14:58:13;20.70;99.90
52965;DHT22;42923;53.220;6.528;2023-05-06T15:00:39;21.10;99.90
52965;DHT22;42923;53.220;6.528;2023-05-06T15:03:05;21.30;99.90
52965;DHT22;42923;53.220;6.528;2023-05-06T15:05:31;21.20;99.90
52965;DHT22;42923;53.220;6.528;2023-05-06T15:07:57;20.90;99.90
52965;DHT22;42923;53.220;6.528;2023-05-06T15:10:22;20.30;99.90
52965;DHT22;42923;53.220;6.528;2023-05-06T15:12:48;19.80;99.90
52965;DHT22;42923;53.220;6.528;2023-05-06T15:15:14;19.30;99.90
52965;DHT22;42923;53.220;6.528;2023-05-06T15:17:39;18.90;99.90
52965;DHT22;42923;53.220;6.528;2023-05-06T15:20:06;18.50;99.90
52965;DHT22;42923;53.220;6.528;2023-05-06T15:22:33;18.30;99.90
52965;DHT22;42923;53.220;6.528;2023-05-06T15:24:59;18.10;99.90
52965;DHT22;42923;53.220;6.528;2023-05-06T15:27:25;17.90;99.90
52965;DHT22;42923;53.220;6.528;2023-05-06T15:29:50;17.70;99.90
52965;DHT22;42923;53.220;6.528;2023-05-06T15:32:16;17.50;99.90
52965;DHT22;42923;53.220;6.528;2023-05-06T15:34:42;17.30;99.90
52965;DHT22;42923;53.220;6.528;2023-05-06T15:37:07;17.20;99.90
52965;DHT22;42923;53.220;6.528;2023-05-06T15:39:35;17.10;99.90
52965;DHT22;42923;53.220;6.528;2023-05-06T15:42:02;17.00;99.90
52965;DHT22;42923;53.220;6.528;2023-05-06T15:44:28;16.90;99.90
52965;DHT22;42923;53.220;6.528;2023-05-06T15:46:54;16.80;99.90
52965;DHT22;42923;53.220;6.528;2023-05-06T15:49:19;16.90;99.90
52965;DHT22;42923;53.220;6.528;2023-05-06T15:51:45;16.90;99.90